createdAt,value
2018-07-23T00:01:09.176Z,4.23
2018-07-23T00:03:36.577Z,4.00
2018-07-23T00:06:04.218Z,4.10
2018-07-23T00:08:31.616Z,4.10
2018-07-23T00:10:59.041Z,4.43
2018-07-23T00:13:26.558Z,4.87
2018-07-23T00:15:53.981Z,4.73
2018-07-23T00:18:21.428Z,3.90
2018-07-23T00:20:48.839Z,4.60
2018-07-23T00:23:16.277Z,4.37
2018-07-23T00:25:43.665Z,3.50
2018-07-23T00:28:11.101Z,3.63
2018-07-23T00:30:38.676Z,3.70
2018-07-23T00:33:08.340Z,3.57
2018-07-23T00:52:43.512Z,3.80
2018-07-23T00:55:11.808Z,4.30
2018-07-23T00:57:42.303Z,4.03
2018-07-23T01:04:38.221Z,4.57
2018-07-23T01:10:33.434Z,3.93
2018-07-23T01:13:11.229Z,3.73
2018-07-23T01:15:41.398Z,4.00
2018-07-23T01:18:10.127Z,3.73
2018-07-23T01:20:37.867Z,3.63
2018-07-23T01:23:08.582Z,3.87
2018-07-23T01:25:36.391Z,4.13
2018-07-23T01:28:05.013Z,3.83
2018-07-23T01:30:32.978Z,3.33
2018-07-23T01:33:01.508Z,3.83
2018-07-23T01:35:34.295Z,3.87
2018-07-23T01:38:06.150Z,3.93
2018-07-23T01:44:09.218Z,4.37
2018-07-23T02:04:38.776Z,3.70
2018-07-23T02:18:18.323Z,4.20
2018-07-23T03:21:19.681Z,3.67
2018-07-23T03:24:09.415Z,4.00
2018-07-23T03:43:55.374Z,2.63
2018-07-23T03:46:25.981Z,2.80
2018-07-23T03:49:35.722Z,3.00
2018-07-23T03:55:34.109Z,2.50
2018-07-23T03:58:01.760Z,2.57
2018-07-23T04:00:29.598Z,2.40
2018-07-23T04:03:14.475Z,2.50
2018-07-23T04:22:39.749Z,2.27
2018-07-23T20:37:25.850Z,2.80
2018-07-23T21:21:56.189Z,3.27
2018-07-23T21:24:41.098Z,3.20
2018-07-23T21:36:36.500Z,2.90
2018-07-23T22:11:25.486Z,3.23
2018-07-23T22:13:53.860Z,4.00
2018-07-23T22:17:14.173Z,4.20
2018-07-23T22:27:49.483Z,4.27
2018-07-23T22:30:47.120Z,4.33
2018-07-23T22:34:24.982Z,4.20
2018-07-23T22:48:37.763Z,3.70
2018-07-23T22:57:38.975Z,2.97
2018-07-23T23:02:51.660Z,3.70
2018-07-23T23:08:33.506Z,3.77
2018-07-23T23:11:06.037Z,3.80
2018-07-23T23:16:10.131Z,4.57
2018-07-23T23:19:59.527Z,3.60
2018-07-23T23:22:27.182Z,4.07
2018-07-23T23:24:56.837Z,4.33
2018-07-23T23:27:47.226Z,4.27
2018-07-23T23:30:15.303Z,4.20
2018-07-23T23:32:43.398Z,3.57
2018-07-23T23:35:11.418Z,4.03
2018-07-23T23:37:40.662Z,3.90
2018-07-23T23:40:16.696Z,3.63
2018-07-23T23:44:30.904Z,4.00
2018-07-23T23:46:59.466Z,3.70
2018-07-23T23:49:31.225Z,3.60
2018-07-23T23:51:59.675Z,3.37
2018-07-23T23:54:28.152Z,3.30
2018-07-23T23:56:58.673Z,3.80
